createdAt,value
2019-04-01T00:00:09.065Z,1022.42
2019-04-01T00:01:09.056Z,1022.45
2019-04-01T00:02:09.067Z,1022.39
2019-04-01T00:03:09.033Z,1022.42
2019-04-01T00:04:09.022Z,1022.41
2019-04-01T00:05:09.012Z,1022.42
2019-04-01T00:06:09.002Z,1022.43
2019-04-01T00:07:08.992Z,1022.38
2019-04-01T00:08:08.991Z,1022.40
2019-04-01T00:09:08.970Z,1022.41
2019-04-01T00:10:08.960Z,1022.43
2019-04-01T00:11:08.951Z,1022.39
2019-04-01T00:12:08.939Z,1022.39
2019-04-01T00:13:08.932Z,1022.48
2019-04-01T00:14:08.933Z,1022.43
2019-04-01T00:15:08.909Z,1022.39
2019-04-01T00:16:08.898Z,1022.47
2019-04-01T00:17:08.893Z,1022.41
2019-04-01T00:18:08.877Z,1022.43
2019-04-01T00:19:08.867Z,1022.40
2019-04-01T00:20:08.867Z,1022.39
2019-04-01T00:21:08.845Z,1022.41
2019-04-01T00:22:08.838Z,1022.46
2019-04-01T00:23:09.022Z,1022.43
2019-04-01T00:24:08.815Z,1022.46
2019-04-01T00:25:08.808Z,1022.47
2019-04-01T00:26:08.806Z,1022.41
2019-04-01T00:27:08.782Z,1022.42
2019-04-01T00:28:08.775Z,1022.40
2019-04-01T00:29:08.762Z,1022.42
2019-04-01T00:30:08.751Z,1022.42
2019-04-01T00:31:08.741Z,1022.34
2019-04-01T00:32:08.741Z,1022.43
2019-04-01T00:33:08.721Z,1022.42
2019-04-01T00:34:08.709Z,1022.41
2019-04-01T00:35:08.702Z,1022.41
2019-04-01T00:36:08.692Z,1022.42
2019-04-01T00:37:08.682Z,1022.42
2019-04-01T00:38:08.681Z,1022.43
2019-04-01T00:39:08.710Z,1022.43
2019-04-01T00:40:08.650Z,1022.42
2019-04-01T00:41:08.637Z,1022.46
2019-04-01T00:42:08.629Z,1022.43
2019-04-01T00:43:08.616Z,1022.39
2019-04-01T00:44:08.618Z,1022.40
2019-04-01T00:45:08.594Z,1022.36
2019-04-01T00:46:08.587Z,1022.33
2019-04-01T00:47:08.573Z,1022.33
2019-04-01T00:48:08.562Z,1022.33
2019-04-01T00:49:08.551Z,1022.35
2019-04-01T00:50:08.555Z,1022.34
2019-04-01T00:51:08.533Z,1022.38
2019-04-01T00:52:08.521Z,1022.31
2019-04-01T00:53:08.510Z,1022.32
2019-04-01T00:54:08.500Z,1022.30
2019-04-01T00:55:08.491Z,1022.26
2019-04-01T00:56:08.489Z,1022.31
2019-04-01T00:57:08.469Z,1022.29
2019-04-01T00:58:08.461Z,1022.33
2019-04-01T00:59:08.449Z,1022.30
2019-04-01T01:00:08.437Z,1022.33
2019-04-01T01:01:08.467Z,1022.35
2019-04-01T01:02:08.427Z,1022.30
2019-04-01T01:03:08.406Z,1022.32
2019-04-01T01:04:08.396Z,1022.26
2019-04-01T01:05:08.386Z,1022.26
2019-04-01T01:06:08.376Z,1022.24
2019-04-01T01:07:08.368Z,1022.25
2019-04-01T01:08:08.376Z,1022.25
2019-04-01T01:09:08.347Z,1022.28
2019-04-01T01:10:08.334Z,1022.17
2019-04-01T01:11:08.324Z,1022.11
2019-04-01T01:12:08.313Z,1022.17
2019-04-01T01:13:08.301Z,1022.16
2019-04-01T01:14:08.309Z,1022.15
2019-04-01T01:15:08.282Z,1022.11
2019-04-01T01:16:08.270Z,1022.18
2019-04-01T01:17:08.266Z,1022.10
2019-04-01T01:18:08.250Z,1022.13
2019-04-01T01:19:08.245Z,1022.12
2019-04-01T01:20:08.242Z,1022.15
2019-04-01T01:21:08.217Z,1022.16
2019-04-01T01:22:08.207Z,1022.06
2019-04-01T01:23:08.196Z,1022.06
2019-04-01T01:24:08.186Z,1022.10
2019-04-01T01:25:08.176Z,1022.03
2019-04-01T01:26:08.176Z,1022.01
2019-04-01T01:27:08.158Z,1022.01
2019-04-01T01:28:08.145Z,1021.99
2019-04-01T01:29:08.139Z,1022.04
2019-04-01T01:30:08.123Z,1021.99
2019-04-01T01:31:08.113Z,1021.99
2019-04-01T01:32:08.115Z,1022.04
2019-04-01T01:33:08.091Z,1022.01
2019-04-01T01:34:08.081Z,1021.97
2019-04-01T01:35:08.071Z,1021.93
2019-04-01T01:36:08.060Z,1021.95
2019-04-01T01:37:08.050Z,1021.89
2019-04-01T01:38:08.051Z,1021.88
2019-04-01T01:39:08.028Z,1021.87
2019-04-01T01:40:08.019Z,1021.85
2019-04-01T01:41:08.007Z,1021.89
2019-04-01T01:42:07.998Z,1021.87
2019-04-01T01:43:07.997Z,1021.89
2019-04-01T01:44:07.989Z,1021.83
2019-04-01T01:45:07.965Z,1021.85
2019-04-01T01:46:07.955Z,1021.85
2019-04-01T01:47:07.944Z,1021.86
2019-04-01T01:48:07.934Z,1021.85
2019-04-01T01:49:07.923Z,1021.84
2019-04-01T01:50:07.932Z,1021.89
2019-04-01T01:51:07.901Z,1021.93
2019-04-01T01:52:07.892Z,1021.83
2019-04-01T01:53:07.880Z,1021.88
2019-04-01T01:54:07.873Z,1021.90
2019-04-01T01:55:07.858Z,1021.85
2019-04-01T01:56:07.862Z,1021.86
2019-04-01T01:57:07.838Z,1021.79
2019-04-01T01:58:07.835Z,1021.80
2019-04-01T01:59:07.816Z,1021.83
2019-04-01T02:00:07.804Z,1021.80
2019-04-01T02:01:07.794Z,1021.81
2019-04-01T02:02:07.799Z,1021.77
2019-04-01T02:03:07.773Z,1021.80
2019-04-01T02:04:07.766Z,1021.79
2019-04-01T02:05:07.751Z,1021.80
2019-04-01T02:06:07.740Z,1021.75
2019-04-01T02:07:07.730Z,1021.73
2019-04-01T02:08:07.730Z,1021.77
2019-04-01T02:09:07.708Z,1021.71
2019-04-01T02:10:07.698Z,1021.66
2019-04-01T02:11:07.687Z,1021.72
2019-04-01T02:12:07.677Z,1021.75
2019-04-01T02:13:07.671Z,1021.72
2019-04-01T02:14:07.672Z,1021.71
2019-04-01T02:15:07.645Z,1021.69
2019-04-01T02:16:07.634Z,1021.68
2019-04-01T02:17:07.626Z,1021.64
2019-04-01T02:18:07.613Z,1021.66
2019-04-01T02:19:07.608Z,1021.68
2019-04-01T02:20:07.614Z,1021.68
2019-04-01T02:21:07.582Z,1021.67
2019-04-01T02:22:07.569Z,1021.67
2019-04-01T02:23:07.559Z,1021.61
2019-04-01T02:24:07.553Z,1021.61
2019-04-01T02:25:07.536Z,1021.59
2019-04-01T02:26:07.536Z,1021.58
2019-04-01T02:27:07.516Z,1021.59
2019-04-01T02:28:07.503Z,1021.59
2019-04-01T02:29:07.493Z,1021.58
2019-04-01T02:30:07.483Z,1021.53
2019-04-01T02:31:07.472Z,1021.55
2019-04-01T02:32:07.472Z,1021.50
2019-04-01T02:33:07.451Z,1021.50
2019-04-01T02:34:07.441Z,1021.55
2019-04-01T02:35:07.429Z,1021.49
2019-04-01T02:36:07.418Z,1021.55
2019-04-01T02:37:07.410Z,1021.54
2019-04-01T02:38:07.408Z,1021.50
2019-04-01T02:39:07.393Z,1021.54
2019-04-01T02:40:07.376Z,1021.49
2019-04-01T02:41:07.366Z,1021.54
2019-04-01T02:42:07.386Z,1021.55
2019-04-01T02:43:07.342Z,1021.52
2019-04-01T02:44:07.344Z,1021.51
2019-04-01T02:45:07.321Z,1021.53
2019-04-01T02:46:07.316Z,1021.52
2019-04-01T02:47:07.301Z,1021.54
2019-04-01T02:48:07.290Z,1021.53
2019-04-01T02:49:07.280Z,1021.50
2019-04-01T02:50:07.286Z,1021.58
2019-04-01T02:51:07.267Z,1021.53
2019-04-01T02:52:07.250Z,1021.54
2019-04-01T02:53:07.238Z,1021.57
2019-04-01T02:54:07.226Z,1021.55
2019-04-01T02:55:07.553Z,1021.55
2019-04-01T02:56:07.224Z,1021.51
2019-04-01T02:57:07.195Z,1021.49
2019-04-01T02:58:07.184Z,1021.52
2019-04-01T02:59:07.172Z,1021.47
2019-04-01T03:00:07.176Z,1021.52
2019-04-01T03:01:07.153Z,1021.54
2019-04-01T03:02:07.152Z,1021.49
2019-04-01T03:03:07.131Z,1021.45
2019-04-01T03:04:07.122Z,1021.46
2019-04-01T03:05:07.111Z,1021.50
2019-04-01T03:06:07.112Z,1021.47
2019-04-01T03:07:07.097Z,1021.42
2019-04-01T03:08:07.097Z,1021.43
2019-04-01T03:09:07.070Z,1021.41
2019-04-01T03:10:07.058Z,1021.41
2019-04-01T03:11:10.340Z,1021.39
2019-04-01T03:12:07.039Z,1021.36
2019-04-01T03:13:07.028Z,1021.37
2019-04-01T03:14:07.038Z,1021.32
2019-04-01T03:15:07.017Z,1021.35
2019-04-01T03:16:06.996Z,1021.34
2019-04-01T03:17:06.988Z,1021.32
2019-04-01T03:18:06.976Z,1021.31
2019-04-01T03:19:06.966Z,1021.29
2019-04-01T03:20:06.964Z,1021.27
2019-04-01T03:21:06.944Z,1021.33
2019-04-01T03:22:06.934Z,1021.31
2019-04-01T03:23:06.922Z,1021.37
2019-04-01T03:24:06.912Z,1021.35
2019-04-01T03:25:06.901Z,1021.30
2019-04-01T03:26:06.904Z,1021.31
2019-04-01T03:27:06.881Z,1021.28
2019-04-01T03:28:06.870Z,1021.28
2019-04-01T03:29:06.861Z,1021.30
2019-04-01T03:30:06.854Z,1021.28
2019-04-01T03:31:06.839Z,1021.31
2019-04-01T03:32:06.900Z,1021.29
2019-04-01T03:33:06.830Z,1021.27
2019-04-01T03:34:06.809Z,1021.24
2019-04-01T03:35:06.798Z,1021.30
2019-04-01T03:36:06.788Z,1021.30
2019-04-01T03:37:06.777Z,1021.30
2019-04-01T03:38:06.779Z,1021.26
2019-04-01T03:39:06.762Z,1021.22
2019-04-01T03:40:06.746Z,1021.24
2019-04-01T03:41:06.738Z,1021.24
2019-04-01T03:42:06.726Z,1021.21
2019-04-01T03:43:06.729Z,1021.22
2019-04-01T03:44:06.715Z,1021.19
2019-04-01T03:45:06.714Z,1021.23
2019-04-01T03:46:06.688Z,1021.21
2019-04-01T03:47:06.683Z,1021.18
2019-04-01T03:48:06.662Z,1021.20
2019-04-01T03:49:06.752Z,1021.21
2019-04-01T03:50:06.685Z,1021.17
2019-04-01T03:51:06.637Z,1021.15
2019-04-01T03:52:10.254Z,1021.15
2019-04-01T03:53:06.615Z,1021.15
2019-04-01T03:54:06.601Z,1021.14
2019-04-01T03:55:06.592Z,1021.10
2019-04-01T03:56:06.593Z,1021.09
2019-04-01T03:57:06.577Z,1021.12
2019-04-01T03:58:06.579Z,1021.12
2019-04-01T03:59:06.556Z,1021.13
2019-04-01T04:00:06.539Z,1021.08
2019-04-01T04:01:06.530Z,1021.09
2019-04-01T04:02:06.537Z,1021.15
2019-04-01T04:03:06.508Z,1021.11
2019-04-01T04:04:06.498Z,1021.12
2019-04-01T04:05:06.488Z,1021.09
2019-04-01T04:06:06.477Z,1021.11
2019-04-01T04:07:06.468Z,1021.08
2019-04-01T04:08:06.465Z,1021.13
2019-04-01T04:09:06.446Z,1021.11
2019-04-01T04:10:06.435Z,1021.11
2019-04-01T04:11:06.434Z,1021.13
2019-04-01T04:12:06.423Z,1021.11
2019-04-01T04:13:06.405Z,1021.08
2019-04-01T04:14:06.405Z,1021.05
2019-04-01T04:15:06.408Z,1021.10
2019-04-01T04:16:06.377Z,1021.07
2019-04-01T04:17:06.364Z,1021.09
2019-04-01T04:18:06.353Z,1021.06
2019-04-01T04:19:06.364Z,1021.01
2019-04-01T04:20:06.367Z,1021.09
2019-04-01T04:21:06.326Z,1021.06
2019-04-01T04:22:06.314Z,1021.04
2019-04-01T04:23:06.308Z,1021.01
2019-04-01T04:24:06.291Z,1021.04
2019-04-01T04:25:06.282Z,1021.06
2019-04-01T04:26:06.305Z,1021.04
2019-04-01T04:27:10.744Z,1021.07
2019-04-01T04:28:06.249Z,1021.08
2019-04-01T04:29:06.240Z,1021.05
2019-04-01T04:30:06.355Z,1021.08
2019-04-01T04:31:06.216Z,1021.10
2019-04-01T04:32:06.215Z,1021.05
2019-04-01T04:33:06.194Z,1021.07
2019-04-01T04:34:06.184Z,1021.06
2019-04-01T04:35:06.173Z,1021.12
2019-04-01T04:36:06.165Z,1021.14
2019-04-01T04:37:06.161Z,1021.08
2019-04-01T04:38:06.173Z,1021.15
2019-04-01T04:39:06.144Z,1021.14
2019-04-01T04:40:06.122Z,1021.11
2019-04-01T04:41:06.112Z,1021.09
2019-04-01T04:42:06.100Z,1021.15
2019-04-01T04:43:06.089Z,1021.16
2019-04-01T04:44:06.090Z,1021.08
2019-04-01T04:45:06.091Z,1021.12
2019-04-01T04:46:06.059Z,1021.12
2019-04-01T04:47:06.050Z,1021.13
2019-04-01T04:48:06.039Z,1021.07
2019-04-01T04:49:06.029Z,1021.10
2019-04-01T04:50:06.028Z,1021.12
2019-04-01T04:51:06.021Z,1021.12
2019-04-01T04:52:05.997Z,1021.11
2019-04-01T04:53:05.986Z,1021.12
2019-04-01T04:54:05.976Z,1021.16
2019-04-01T04:55:05.965Z,1021.15
2019-04-01T04:56:05.966Z,1021.11
2019-04-01T04:57:05.944Z,1021.12
2019-04-01T04:58:05.933Z,1021.12
2019-04-01T04:59:05.924Z,1021.09
2019-04-01T05:00:05.913Z,1021.09
2019-04-01T05:01:05.902Z,1021.06
2019-04-01T05:02:05.907Z,1021.12
2019-04-01T05:03:05.881Z,1021.09
2019-04-01T05:04:05.871Z,1021.11
2019-04-01T05:05:05.860Z,1021.07
2019-04-01T05:06:05.850Z,1021.07
2019-04-01T05:07:05.848Z,1021.05
2019-04-01T05:08:05.842Z,1021.14
2019-04-01T05:09:05.831Z,1021.10
2019-04-01T05:10:05.808Z,1021.11
2019-04-01T05:11:05.798Z,1021.08
2019-04-01T05:12:05.788Z,1021.09
2019-04-01T05:13:05.776Z,1021.14
2019-04-01T05:14:05.777Z,1021.13
2019-04-01T05:15:05.755Z,1021.14
2019-04-01T05:16:05.745Z,1021.14
2019-04-01T05:17:05.734Z,1021.13
2019-04-01T05:18:05.730Z,1021.16
2019-04-01T05:19:05.715Z,1021.17
2019-04-01T05:20:05.714Z,1021.14
2019-04-01T05:21:05.693Z,1021.19
2019-04-01T05:22:05.683Z,1021.19
2019-04-01T05:23:05.672Z,1021.14
2019-04-01T05:24:05.661Z,1021.19
2019-04-01T05:25:05.650Z,1021.24
2019-04-01T05:26:05.650Z,1021.24
2019-04-01T05:27:05.630Z,1021.21
2019-04-01T05:28:05.620Z,1021.26
2019-04-01T05:29:05.608Z,1021.27
2019-04-01T05:30:05.599Z,1021.29
2019-04-01T05:31:05.591Z,1021.22
2019-04-01T05:32:05.587Z,1021.29
2019-04-01T05:33:05.573Z,1021.27
2019-04-01T05:34:05.555Z,1021.25
2019-04-01T05:35:05.544Z,1021.27
2019-04-01T05:36:05.535Z,1021.28
2019-04-01T05:37:08.774Z,1021.29
2019-04-01T05:38:05.523Z,1021.34
2019-04-01T05:39:05.504Z,1021.35
2019-04-01T05:40:05.574Z,1021.42
2019-04-01T05:41:05.483Z,1021.39
2019-04-01T05:42:05.472Z,1021.41
2019-04-01T05:43:05.467Z,1021.41
2019-04-01T05:44:05.462Z,1021.41
2019-04-01T05:45:05.441Z,1021.41
2019-04-01T05:46:05.429Z,1021.39
2019-04-01T05:47:05.423Z,1021.49
2019-04-01T05:48:05.413Z,1021.50
2019-04-01T05:49:05.400Z,1021.48
2019-04-01T05:50:05.397Z,1021.61
2019-04-01T05:51:05.376Z,1021.58
2019-04-01T05:52:05.364Z,1021.56
2019-04-01T05:53:05.355Z,1021.56
2019-04-01T05:54:05.343Z,1021.58
2019-04-01T05:55:08.788Z,1021.64
2019-04-01T05:56:05.333Z,1021.54
2019-04-01T05:57:05.312Z,1021.55
2019-04-01T05:58:05.302Z,1021.59
2019-04-01T05:59:05.291Z,1021.62
2019-04-01T06:00:05.280Z,1021.58
2019-04-01T06:01:05.269Z,1021.61
2019-04-01T06:02:05.268Z,1021.66
2019-04-01T06:03:05.247Z,1021.61
2019-04-01T06:04:05.239Z,1021.62
2019-04-01T06:05:05.226Z,1021.62
2019-04-01T06:06:05.214Z,1021.63
2019-04-01T06:07:05.205Z,1021.66
2019-04-01T06:08:05.205Z,1021.66
2019-04-01T06:09:05.183Z,1021.66
2019-04-01T06:10:05.174Z,1021.73
2019-04-01T06:11:05.162Z,1021.70
2019-04-01T06:12:05.152Z,1021.69
2019-04-01T06:13:05.144Z,1021.75
2019-04-01T06:14:05.142Z,1021.76
2019-04-01T06:15:05.120Z,1021.73
2019-04-01T06:16:05.110Z,1021.74
2019-04-01T06:17:05.099Z,1021.68
2019-04-01T06:18:05.088Z,1021.69
2019-04-01T06:19:06.145Z,1021.74
2019-04-01T06:20:05.079Z,1021.77
2019-04-01T06:21:05.059Z,1021.74
2019-04-01T06:22:05.045Z,1021.71
2019-04-01T06:23:05.033Z,1021.72
2019-04-01T06:24:05.105Z,1021.75
2019-04-01T06:25:05.013Z,1021.72
2019-04-01T06:26:05.027Z,1021.77
2019-04-01T06:27:04.991Z,1021.72
2019-04-01T06:28:04.982Z,1021.71
2019-04-01T06:29:04.969Z,1021.68
2019-04-01T06:30:04.959Z,1021.67
2019-04-01T06:31:04.950Z,1021.64
2019-04-01T06:32:04.954Z,1021.67
2019-04-01T06:33:04.927Z,1021.77
2019-04-01T06:34:04.916Z,1021.67
2019-04-01T06:35:04.908Z,1021.65
2019-04-01T06:36:04.895Z,1021.71
2019-04-01T06:37:04.883Z,1021.70
2019-04-01T06:38:04.892Z,1021.70
2019-04-01T06:39:04.863Z,1021.71
2019-04-01T06:40:04.851Z,1021.68
2019-04-01T06:41:04.840Z,1021.66
2019-04-01T06:42:07.133Z,1021.64
2019-04-01T06:43:04.819Z,1021.72
2019-04-01T06:44:04.818Z,1021.66
2019-04-01T06:45:04.797Z,1021.71
2019-04-01T06:46:04.861Z,1021.71
2019-04-01T06:47:04.776Z,1021.67
2019-04-01T06:48:04.765Z,1021.67
2019-04-01T06:49:04.755Z,1021.69
2019-04-01T06:50:04.755Z,1021.70
2019-04-01T06:51:04.735Z,1021.72
2019-04-01T06:52:04.721Z,1021.71
2019-04-01T06:53:04.711Z,1021.62
2019-04-01T06:54:04.700Z,1021.72
2019-04-01T06:55:04.688Z,1021.72
2019-04-01T06:56:04.692Z,1021.76
2019-04-01T06:57:04.667Z,1021.78
2019-04-01T06:58:04.659Z,1021.76
2019-04-01T06:59:04.647Z,1021.76
2019-04-01T07:00:04.635Z,1021.82
2019-04-01T07:01:04.626Z,1021.77
2019-04-01T07:02:04.624Z,1021.72
2019-04-01T07:03:04.602Z,1021.77
2019-04-01T07:04:04.591Z,1021.77
2019-04-01T07:05:04.580Z,1021.75
2019-04-01T07:06:04.570Z,1021.73
2019-04-01T07:07:17.799Z,1021.76
2019-04-01T07:08:05.557Z,1021.83
2019-04-01T07:09:04.539Z,1021.81
2019-04-01T07:10:04.555Z,1021.82
2019-04-01T07:11:04.514Z,1021.74
2019-04-01T07:12:04.503Z,1021.75
2019-04-01T07:13:04.495Z,1021.74
2019-04-01T07:14:04.493Z,1021.78
2019-04-01T07:15:04.471Z,1021.80
2019-04-01T07:16:15.424Z,1021.84
2019-04-01T07:17:05.475Z,1021.83
2019-04-01T07:18:04.440Z,1021.87
2019-04-01T07:19:04.430Z,1021.91
2019-04-01T07:20:04.428Z,1021.83
2019-04-01T07:21:04.408Z,1021.80
2019-04-01T07:22:04.395Z,1021.78
2019-04-01T07:23:04.385Z,1021.87
2019-04-01T07:24:04.375Z,1021.78
2019-04-01T07:25:04.364Z,1021.80
2019-04-01T07:26:04.366Z,1021.82
2019-04-01T07:27:07.836Z,1021.70
2019-04-01T07:28:04.331Z,1021.72
2019-04-01T07:29:04.319Z,1021.70
2019-04-01T07:30:04.308Z,1021.76
2019-04-01T07:31:04.300Z,1021.92
2019-04-01T07:32:04.297Z,1021.86
2019-04-01T07:33:04.278Z,1021.91
2019-04-01T07:34:04.265Z,1021.95
2019-04-01T07:35:04.254Z,1021.92
2019-04-01T07:36:04.245Z,1021.84
2019-04-01T07:37:04.235Z,1021.95
2019-04-01T07:38:04.233Z,1022.04
2019-04-01T07:39:04.214Z,1022.06
2019-04-01T07:40:04.203Z,1022.13
2019-04-01T07:41:04.195Z,1022.17
2019-04-01T07:42:04.181Z,1022.16
2019-04-01T07:43:04.169Z,1022.19
2019-04-01T07:44:04.173Z,1022.27
2019-04-01T07:45:04.150Z,1022.35
2019-04-01T07:46:04.140Z,1022.33
2019-04-01T07:47:04.126Z,1022.33
2019-04-01T07:48:04.114Z,1022.33
2019-04-01T07:49:04.123Z,1022.43
2019-04-01T07:50:04.120Z,1022.43
2019-04-01T07:51:07.117Z,1022.35
2019-04-01T07:52:04.069Z,1022.34
2019-04-01T07:53:04.058Z,1022.48
2019-04-01T07:54:04.048Z,1022.42
2019-04-01T07:55:04.040Z,1022.38
2019-04-01T07:56:04.040Z,1022.33
2019-04-01T07:57:04.014Z,1022.31
2019-04-01T07:58:04.019Z,1022.36
2019-04-01T07:59:03.993Z,1022.36
2019-04-01T08:00:03.984Z,1022.20
2019-04-01T08:01:03.971Z,1022.16
2019-04-01T08:02:03.970Z,1022.22
2019-04-01T08:03:03.950Z,1022.08
2019-04-01T08:04:03.939Z,1022.20
2019-04-01T08:05:03.930Z,1022.22
2019-04-01T08:06:03.918Z,1022.13
2019-04-01T08:07:03.907Z,1022.04
2019-04-01T08:08:03.909Z,1022.08
2019-04-01T08:09:03.888Z,1022.06
2019-04-01T08:10:03.876Z,1021.95
2019-04-01T08:11:03.864Z,1021.89
2019-04-01T08:12:03.855Z,1021.90
2019-04-01T08:13:03.845Z,1021.88
2019-04-01T08:14:03.843Z,1021.95
2019-04-01T08:15:03.822Z,1021.83
2019-04-01T08:16:03.812Z,1021.74
2019-04-01T08:17:03.799Z,1021.86
2019-04-01T08:18:03.789Z,1021.75
2019-04-01T08:19:03.779Z,1021.73
2019-04-01T08:20:03.777Z,1021.70
2019-04-01T08:21:03.757Z,1021.70
2019-04-01T08:22:03.752Z,1021.62
2019-04-01T08:23:03.733Z,1021.61
2019-04-01T08:24:03.724Z,1021.64
2019-04-01T08:25:03.713Z,1021.69
2019-04-01T08:26:03.719Z,1021.65
2019-04-01T08:27:07.169Z,1021.61
2019-04-01T08:28:03.680Z,1021.66
2019-04-01T08:29:03.669Z,1021.65
2019-04-01T08:30:03.661Z,1021.64
2019-04-01T08:31:03.647Z,1021.60
2019-04-01T08:32:03.667Z,1021.59
2019-04-01T08:33:03.653Z,1021.60
2019-04-01T08:34:03.614Z,1021.49
2019-04-01T08:35:03.606Z,1021.58
2019-04-01T08:36:03.593Z,1021.53
2019-04-01T08:37:03.582Z,1021.60
2019-04-01T08:38:03.584Z,1021.52
2019-04-01T08:39:03.560Z,1021.39
2019-04-01T08:40:03.550Z,1021.61
2019-04-01T08:41:03.539Z,1021.56
2019-04-01T08:42:03.532Z,1021.64
2019-04-01T08:43:03.518Z,1021.52
2019-04-01T08:44:03.522Z,1021.53
2019-04-01T08:45:03.496Z,1021.47
2019-04-01T08:46:03.485Z,1021.50
2019-04-01T08:47:03.475Z,1021.46
2019-04-01T08:48:03.463Z,1021.52
2019-04-01T08:49:03.453Z,1021.49
2019-04-01T08:50:03.451Z,1021.45
2019-04-01T08:51:03.429Z,1021.54
2019-04-01T08:52:03.424Z,1021.54
2019-04-01T08:53:03.407Z,1021.49
2019-04-01T08:54:03.396Z,1021.50
2019-04-01T08:55:03.389Z,1021.47
2019-04-01T08:56:03.385Z,1021.56
2019-04-01T08:57:03.364Z,1021.30
2019-04-01T08:58:03.355Z,1021.45
2019-04-01T08:59:03.347Z,1021.42
2019-04-01T09:00:03.332Z,1021.40
2019-04-01T09:01:03.318Z,1021.41
2019-04-01T09:02:17.189Z,1021.44
2019-04-01T09:03:04.319Z,1021.51
2019-04-01T09:04:03.287Z,1021.44
2019-04-01T09:05:03.278Z,1021.31
2019-04-01T09:06:03.321Z,1021.27
2019-04-01T09:07:03.251Z,1021.18
2019-04-01T09:08:03.255Z,1021.14
2019-04-01T09:09:03.229Z,1021.09
2019-04-01T09:10:03.220Z,1021.12
2019-04-01T09:11:03.209Z,1021.10
2019-04-01T09:12:03.196Z,1021.20
2019-04-01T09:13:03.186Z,1021.07
2019-04-01T09:14:03.185Z,1021.03
2019-04-01T09:15:03.163Z,1021.00
2019-04-01T09:16:03.153Z,1021.02
2019-04-01T09:17:03.142Z,1021.11
2019-04-01T09:18:03.134Z,1021.16
2019-04-01T09:19:03.119Z,1021.09
2019-04-01T09:20:03.120Z,1020.99
2019-04-01T09:21:03.096Z,1021.06
2019-04-01T09:22:03.085Z,1021.03
2019-04-01T09:23:03.079Z,1020.99
2019-04-01T09:24:03.063Z,1021.01
2019-04-01T09:25:03.051Z,1021.01
2019-04-01T09:26:03.075Z,1021.07
2019-04-01T09:27:03.028Z,1020.98
2019-04-01T09:28:03.018Z,1020.83
2019-04-01T09:29:03.008Z,1020.90
2019-04-01T09:30:02.996Z,1020.99
2019-04-01T09:31:02.984Z,1020.88
2019-04-01T09:32:02.984Z,1020.91
2019-04-01T09:33:02.970Z,1020.89
2019-04-01T09:34:02.953Z,1020.92
2019-04-01T09:35:02.943Z,1020.82
2019-04-01T09:36:02.931Z,1020.97
2019-04-01T09:37:02.919Z,1020.90
2019-04-01T09:38:02.922Z,1020.84
2019-04-01T09:39:02.896Z,1020.77
2019-04-01T09:40:02.885Z,1020.78
2019-04-01T09:41:02.875Z,1020.77
2019-04-01T09:42:02.863Z,1020.77
2019-04-01T09:43:02.851Z,1020.74
2019-04-01T09:44:02.851Z,1020.79
2019-04-01T09:45:02.830Z,1020.69
2019-04-01T09:46:02.819Z,1020.64
2019-04-01T09:47:02.814Z,1020.72
2019-04-01T09:48:02.798Z,1020.65
2019-04-01T09:49:02.785Z,1020.66
2019-04-01T09:50:02.786Z,1020.60
2019-04-01T09:51:02.766Z,1020.59
2019-04-01T09:52:03.956Z,1020.56
2019-04-01T09:53:02.743Z,1020.51
2019-04-01T09:54:02.730Z,1020.49
2019-04-01T09:55:05.981Z,1020.52
2019-04-01T09:56:02.719Z,1020.44
2019-04-01T09:57:16.812Z,1020.46
2019-04-01T09:58:03.685Z,1020.52
2019-04-01T09:59:02.675Z,1020.45
2019-04-01T10:00:02.664Z,1020.45
2019-04-01T10:01:02.654Z,1020.45
2019-04-01T10:02:02.651Z,1020.38
2019-04-01T10:03:02.631Z,1020.26
2019-04-01T10:04:02.619Z,1020.38
2019-04-01T10:05:02.609Z,1020.27
2019-04-01T10:06:02.598Z,1020.34
2019-04-01T10:07:02.586Z,1020.27
2019-04-01T10:08:02.585Z,1020.30
2019-04-01T10:09:02.567Z,1020.32
2019-04-01T10:10:02.556Z,1020.26
2019-04-01T10:11:02.543Z,1020.18
2019-04-01T10:12:02.531Z,1020.19
2019-04-01T10:13:02.521Z,1020.22
2019-04-01T10:14:02.521Z,1020.07
2019-04-01T10:15:02.501Z,1020.17
2019-04-01T10:16:02.493Z,1020.14
2019-04-01T10:17:02.479Z,1020.26
2019-04-01T10:18:02.469Z,1020.15
2019-04-01T10:19:02.457Z,1020.08
2019-04-01T10:20:02.461Z,1020.10
2019-04-01T10:21:02.436Z,1020.04
2019-04-01T10:22:02.425Z,1020.13
2019-04-01T10:23:02.416Z,1020.12
2019-04-01T10:24:02.403Z,1020.06
2019-04-01T10:25:02.393Z,1019.97
2019-04-01T10:26:02.392Z,1019.96
2019-04-01T10:27:02.371Z,1019.94
2019-04-01T10:28:02.360Z,1020.00
2019-04-01T10:29:02.350Z,1019.97
2019-04-01T10:30:02.337Z,1019.99
2019-04-01T10:31:02.326Z,1019.83
2019-04-01T10:32:02.326Z,1019.93
2019-04-01T10:33:02.738Z,1019.90
2019-04-01T10:34:02.300Z,1019.89
2019-04-01T10:35:02.286Z,1019.88
2019-04-01T10:36:02.275Z,1019.86
2019-04-01T10:37:02.266Z,1019.79
2019-04-01T10:38:02.263Z,1019.79
2019-04-01T10:39:02.242Z,1019.87
2019-04-01T10:40:02.230Z,1019.79
2019-04-01T10:41:02.231Z,1019.79
2019-04-01T10:42:02.209Z,1019.77
2019-04-01T10:43:02.198Z,1019.71
2019-04-01T10:44:04.852Z,1019.76
2019-04-01T10:45:02.183Z,1019.69
2019-04-01T10:46:02.166Z,1019.65
2019-04-01T10:47:02.154Z,1019.74
2019-04-01T10:48:02.230Z,1019.66
2019-04-01T10:49:02.136Z,1019.61
2019-04-01T10:50:02.164Z,1019.60
2019-04-01T10:51:02.119Z,1019.63
2019-04-01T10:52:02.185Z,1019.53
2019-04-01T10:53:02.133Z,1019.57
2019-04-01T10:54:02.120Z,1019.61
2019-04-01T10:55:02.171Z,1019.60
2019-04-01T10:56:02.113Z,1019.49
2019-04-01T10:57:02.084Z,1019.54
2019-04-01T10:58:02.141Z,1019.49
2019-04-01T10:59:02.109Z,1019.51
2019-04-01T11:00:02.109Z,1019.58
2019-04-01T11:01:02.093Z,1019.48
2019-04-01T11:02:02.008Z,1019.52
2019-04-01T11:03:05.825Z,1019.46
2019-04-01T11:04:02.046Z,1019.45
2019-04-01T11:05:02.052Z,1019.39
2019-04-01T11:06:02.002Z,1019.36
2019-04-01T11:07:01.983Z,1019.34
2019-04-01T11:08:01.981Z,1019.39
2019-04-01T11:09:01.962Z,1019.30
2019-04-01T11:10:01.904Z,1019.43
2019-04-01T11:11:01.894Z,1019.32
2019-04-01T11:12:01.882Z,1019.33
2019-04-01T11:13:01.871Z,1019.37
2019-04-01T11:14:01.871Z,1019.35
2019-04-01T11:15:01.850Z,1019.37
2019-04-01T11:16:01.840Z,1019.44
2019-04-01T11:17:04.222Z,1019.36
2019-04-01T11:18:01.816Z,1019.28
2019-04-01T11:19:01.805Z,1019.34
2019-04-01T11:20:01.808Z,1019.34
2019-04-01T11:21:01.785Z,1019.39
2019-04-01T11:22:01.772Z,1019.25
2019-04-01T11:23:02.689Z,1019.26
2019-04-01T11:24:02.144Z,1019.23
2019-04-01T11:25:01.747Z,1019.23
2019-04-01T11:26:01.739Z,1019.35
2019-04-01T11:27:01.717Z,1019.27
2019-04-01T11:28:01.707Z,1019.26
2019-04-01T11:29:01.703Z,1019.24
2019-04-01T11:30:01.687Z,1019.29
2019-04-01T11:31:01.678Z,1019.23
2019-04-01T11:32:01.674Z,1019.15
2019-04-01T11:33:01.706Z,1019.14
2019-04-01T11:34:01.702Z,1019.14
2019-04-01T11:35:01.683Z,1019.16
2019-04-01T11:36:01.618Z,1019.07
2019-04-01T11:37:01.649Z,1019.02
2019-04-01T11:38:01.665Z,1019.07
2019-04-01T11:39:01.608Z,1019.13
2019-04-01T11:40:01.576Z,1019.07
2019-04-01T11:41:01.591Z,1019.03
2019-04-01T11:42:01.853Z,1019.06
2019-04-01T11:43:04.823Z,1019.10
2019-04-01T11:44:01.612Z,1019.15
2019-04-01T11:45:01.915Z,1019.10
2019-04-01T11:46:01.518Z,1018.98
2019-04-01T11:47:01.544Z,1019.06
2019-04-01T11:48:01.538Z,1019.05
2019-04-01T11:49:01.475Z,1019.02
2019-04-01T11:50:01.508Z,1019.01
2019-04-01T11:51:01.473Z,1018.96
2019-04-01T11:52:01.449Z,1018.99
2019-04-01T11:53:01.434Z,1018.96
2019-04-01T11:54:01.419Z,1018.98
2019-04-01T11:55:01.432Z,1018.96
2019-04-01T11:56:01.408Z,1018.93
2019-04-01T11:57:01.388Z,1018.92
2019-04-01T11:58:01.376Z,1018.92
2019-04-01T11:59:01.375Z,1018.90
2019-04-01T12:00:01.354Z,1018.85
2019-04-01T12:01:01.344Z,1018.82
2019-04-01T12:02:01.342Z,1018.98
2019-04-01T12:03:01.324Z,1018.78
2019-04-01T12:04:01.313Z,1018.75
2019-04-01T12:05:01.299Z,1018.70